createdAt,value
2018-04-22T00:00:44.677Z,40.00
2018-04-22T00:03:12.014Z,39.70
2018-04-22T00:08:08.414Z,38.40
2018-04-22T00:13:04.844Z,39.40
2018-04-22T00:15:32.191Z,39.20
2018-04-22T00:20:28.611Z,39.70
2018-04-22T00:22:57.213Z,40.20
2018-04-22T00:25:24.557Z,40.20
2018-04-22T00:27:51.930Z,39.90
2018-04-22T00:30:19.285Z,39.90
2018-04-22T00:32:46.726Z,40.00
2018-04-22T00:35:14.910Z,39.90
2018-04-22T00:37:42.236Z,39.30
2018-04-22T00:40:09.648Z,40.30
2018-04-22T00:42:37.011Z,40.30
2018-04-22T00:52:29.215Z,40.10
2018-04-22T00:54:56.634Z,40.40
2018-04-22T00:57:24.782Z,40.70
2018-04-22T00:59:52.162Z,40.60
2018-04-22T01:04:48.626Z,40.20
2018-04-22T01:07:15.993Z,39.50
2018-04-22T01:12:11.632Z,40.70
2018-04-22T01:14:38.990Z,41.10
2018-04-22T01:17:06.339Z,40.70
2018-04-22T01:19:33.671Z,40.10
2018-04-22T01:24:30.355Z,40.00
2018-04-22T01:26:57.725Z,40.80
2018-04-22T01:29:25.848Z,40.80
2018-04-22T01:31:53.210Z,40.00
2018-04-22T01:39:17.884Z,41.00
2018-04-22T01:41:45.243Z,40.40
2018-04-22T01:44:19.626Z,40.90
2018-04-22T01:46:47.737Z,40.10
2018-04-22T01:49:15.142Z,39.90
2018-04-22T01:54:11.547Z,40.90
2018-04-22T01:56:38.910Z,41.30
2018-04-22T01:59:06.264Z,40.80
2018-04-22T02:01:33.619Z,41.00
2018-04-22T02:06:29.463Z,41.50
2018-04-22T02:11:25.947Z,40.80
2018-04-22T02:13:54.047Z,41.20
2018-04-22T02:16:22.174Z,40.90
2018-04-22T02:21:17.915Z,42.30
2018-04-22T02:23:45.975Z,42.40
2018-04-22T02:28:41.637Z,41.30
2018-04-22T02:31:09.012Z,41.70
2018-04-22T02:33:37.128Z,42.20
2018-04-22T02:36:04.494Z,42.80
2018-04-22T02:41:00.915Z,42.00
2018-04-22T02:43:28.328Z,41.00
2018-04-22T02:48:23.935Z,40.30
2018-04-22T02:53:19.678Z,42.70
2018-04-22T02:55:47.075Z,41.40
2018-04-22T03:00:42.805Z,44.80
2018-04-22T03:03:10.142Z,43.30
2018-04-22T03:05:37.530Z,43.70
2018-04-22T03:08:04.843Z,42.40
2018-04-22T03:10:33.134Z,42.70
2018-04-22T03:13:00.499Z,41.50
2018-04-22T03:17:56.239Z,41.70
2018-04-22T03:20:23.634Z,44.00
2018-04-22T03:22:51.713Z,45.30
2018-04-22T03:25:19.154Z,44.50
2018-04-22T03:27:46.755Z,43.60
2018-04-22T03:30:14.158Z,43.50
2018-04-22T03:35:11.295Z,43.40
2018-04-22T03:37:39.038Z,43.40
2018-04-22T03:40:07.158Z,44.10
2018-04-22T03:42:34.845Z,43.40
2018-04-22T03:47:30.675Z,43.20
2018-04-22T03:52:26.349Z,42.10
2018-04-22T03:54:53.691Z,43.30
2018-04-22T03:57:21.079Z,42.30
2018-04-22T04:02:16.822Z,43.70
2018-04-22T04:04:44.174Z,43.80
2018-04-22T04:07:11.627Z,43.90
2018-04-22T04:09:39.803Z,44.30
2018-04-22T04:17:03.903Z,44.30
2018-04-22T04:30:29.180Z,45.70
2018-04-22T04:32:56.515Z,46.00
2018-04-22T04:35:24.718Z,44.90
2018-04-22T04:40:20.483Z,43.40
2018-04-22T04:42:47.819Z,44.90
2018-04-22T04:50:11.865Z,42.60
2018-04-22T04:52:40.359Z,44.00
2018-04-22T04:57:37.142Z,43.30
2018-04-22T05:00:04.503Z,43.00
2018-04-22T05:02:32.615Z,44.50
2018-04-22T05:07:28.395Z,43.10
2018-04-22T05:09:55.775Z,42.30
2018-04-22T05:12:23.883Z,42.30
2018-04-22T05:17:19.552Z,39.70
2018-04-22T05:19:46.935Z,39.90
2018-04-22T05:22:15.044Z,42.00
2018-04-22T05:27:10.747Z,42.00
2018-04-22T05:32:07.659Z,41.30
2018-04-22T05:34:35.018Z,40.30
2018-04-22T05:39:30.654Z,42.10
2018-04-22T05:41:58.019Z,42.10
2018-04-22T05:46:53.659Z,39.40
2018-04-22T05:51:50.250Z,39.90
2018-04-22T05:56:46.698Z,41.70
2018-04-22T06:01:43.164Z,40.00
2018-04-22T06:04:11.575Z,38.80
2018-04-22T06:06:39.147Z,39.60
2018-04-22T06:09:06.514Z,39.70
2018-04-22T06:19:00.274Z,39.70
2018-04-22T06:21:27.642Z,40.10
2018-04-22T06:26:23.679Z,41.20
2018-04-22T06:28:52.026Z,40.10
2018-04-22T06:31:19.407Z,40.20
2018-04-22T06:36:23.190Z,39.60
2018-04-22T06:38:51.318Z,37.60
2018-04-22T06:41:19.489Z,38.80
2018-04-22T06:43:47.884Z,38.30
2018-04-22T06:46:16.073Z,36.50
2018-04-22T06:48:44.195Z,36.30
2018-04-22T06:51:12.330Z,38.50
2018-04-22T06:53:39.774Z,38.00
2018-04-22T06:58:36.206Z,36.90
2018-04-22T07:01:03.651Z,36.40
2018-04-22T07:08:28.374Z,34.90
2018-04-22T07:10:56.465Z,35.70
2018-04-22T07:13:23.871Z,36.20
2018-04-22T07:15:51.178Z,36.00
2018-04-22T07:18:19.355Z,35.20
2018-04-22T07:25:44.053Z,34.40
2018-04-22T07:28:11.397Z,34.10
2018-04-22T07:30:39.574Z,35.40
2018-04-22T07:33:06.974Z,34.20
2018-04-22T07:35:35.095Z,33.90
2018-04-22T07:38:02.475Z,34.60
2018-04-22T07:42:58.936Z,35.60
2018-04-22T07:45:26.282Z,35.20
2018-04-22T07:50:22.692Z,35.20
2018-04-22T07:52:50.784Z,36.00
2018-04-22T07:55:18.261Z,36.70
2018-04-22T08:00:13.917Z,34.90
2018-04-22T08:05:09.758Z,34.20
2018-04-22T08:07:37.187Z,33.90
2018-04-22T08:12:32.977Z,32.80
2018-04-22T08:17:29.431Z,34.60
2018-04-22T08:19:57.561Z,31.90
2018-04-22T08:22:25.638Z,30.90
2018-04-22T08:24:53.044Z,32.30
2018-04-22T08:27:20.472Z,31.90
2018-04-22T08:32:16.103Z,32.60
2018-04-22T08:37:12.094Z,32.60
2018-04-22T08:39:39.450Z,32.80
2018-04-22T08:42:07.575Z,33.20
2018-04-22T08:44:35.726Z,32.80
2018-04-22T08:47:03.109Z,32.60
2018-04-22T08:51:59.744Z,31.00
2018-04-22T08:56:55.512Z,31.40
2018-04-22T08:59:22.889Z,32.10
2018-04-22T09:01:51.015Z,31.40
2018-04-22T09:06:46.726Z,31.40
2018-04-22T09:14:10.713Z,29.70
2018-04-22T09:16:38.820Z,29.90
2018-04-22T09:19:07.102Z,27.40
2018-04-22T09:21:34.472Z,27.10
2018-04-22T09:24:02.039Z,28.50
2018-04-22T09:31:26.139Z,29.10
2018-04-22T09:33:54.223Z,29.10
2018-04-22T09:38:50.110Z,29.50
2018-04-22T09:43:46.749Z,27.80
2018-04-22T09:46:15.662Z,25.90
2018-04-22T09:48:43.041Z,26.90
2018-04-22T09:53:39.490Z,26.40
2018-04-22T09:58:35.206Z,26.40
2018-04-22T10:01:03.470Z,26.60
2018-04-22T10:03:31.663Z,26.30
2018-04-22T10:06:01.184Z,26.20
2018-04-22T10:08:28.572Z,26.30
2018-04-22T10:10:55.917Z,27.20
2018-04-22T10:13:23.370Z,27.10
2018-04-22T10:15:51.747Z,26.30
2018-04-22T10:18:19.103Z,26.60
2018-04-22T10:20:46.603Z,26.80
2018-04-22T10:25:42.467Z,27.80
2018-04-22T10:28:10.039Z,27.20
2018-04-22T10:33:06.909Z,26.50
2018-04-22T10:35:35.118Z,25.80
2018-04-22T10:40:32.123Z,25.60
2018-04-22T10:42:59.630Z,26.20
2018-04-22T10:47:56.183Z,26.70
2018-04-22T10:50:23.576Z,26.50
2018-04-22T10:52:53.096Z,25.90
2018-04-22T10:55:20.659Z,25.40
2018-04-22T11:02:46.313Z,28.00
2018-04-22T11:07:42.496Z,30.00
2018-04-22T11:10:10.753Z,30.60
2018-04-22T11:12:38.395Z,31.00
2018-04-22T11:22:31.777Z,29.30
2018-04-22T11:24:59.219Z,28.00
2018-04-22T11:27:27.393Z,26.30
2018-04-22T11:29:55.804Z,26.20
2018-04-22T11:34:52.344Z,25.30
2018-04-22T11:37:19.716Z,24.90
2018-04-22T11:39:47.075Z,25.00
2018-04-22T11:42:14.443Z,25.10
2018-04-22T11:44:41.854Z,25.30
2018-04-22T11:47:09.227Z,25.50
2018-04-22T11:49:36.659Z,25.70
2018-04-22T11:54:32.391Z,25.40
2018-04-22T11:57:00.596Z,25.30
2018-04-22T11:59:28.690Z,25.60
2018-04-22T12:04:24.430Z,27.20
2018-04-22T12:06:51.802Z,27.40
2018-04-22T12:11:47.496Z,28.80
2018-04-22T12:14:14.833Z,29.50
2018-04-22T12:16:42.259Z,30.10
2018-04-22T12:21:38.789Z,30.50
2018-04-22T12:26:34.427Z,31.10
2018-04-22T12:29:01.840Z,31.40
2018-04-22T12:31:29.311Z,31.00
2018-04-22T12:33:57.446Z,29.10
2018-04-22T12:36:24.921Z,27.80
2018-04-22T12:38:53.291Z,26.80
2018-04-22T12:41:21.407Z,26.30
2018-04-22T12:46:17.064Z,25.90
2018-04-22T12:51:12.860Z,27.00
2018-04-22T12:53:40.230Z,28.20
2018-04-22T12:56:08.443Z,28.10
2018-04-22T12:58:35.876Z,24.50
2018-04-22T13:01:03.326Z,26.90
2018-04-22T13:03:31.439Z,27.70
2018-04-22T13:05:58.921Z,28.80
2018-04-22T13:08:26.298Z,29.20
2018-04-22T13:10:54.374Z,29.30
2018-04-22T13:13:22.476Z,29.70
2018-04-22T13:18:19.323Z,28.10
2018-04-22T13:20:55.685Z,28.10
2018-04-22T13:23:23.134Z,26.10
2018-04-22T13:25:50.556Z,28.10
2018-04-22T13:28:17.946Z,28.80
2018-04-22T13:30:45.332Z,28.90
2018-04-22T13:33:12.684Z,28.00
2018-04-22T13:35:40.204Z,27.30
2018-04-22T13:38:07.600Z,26.50
2018-04-22T13:40:35.015Z,26.30
2018-04-22T13:43:02.407Z,27.00
2018-04-22T13:45:29.871Z,27.20
2018-04-22T13:47:57.251Z,27.30
2018-04-22T13:50:25.368Z,27.30
2018-04-22T13:52:52.815Z,24.90
2018-04-22T13:55:20.296Z,24.20
2018-04-22T13:57:47.678Z,26.00
2018-04-22T14:00:15.132Z,28.00
2018-04-22T14:02:42.503Z,29.00
2018-04-22T14:05:10.838Z,29.60
2018-04-22T14:07:38.406Z,29.70
2018-04-22T14:10:05.943Z,29.60
2018-04-22T14:12:33.343Z,30.40
2018-04-22T14:15:00.892Z,30.60
2018-04-22T14:17:32.905Z,30.00
2018-04-22T14:20:00.293Z,29.80
2018-04-22T14:22:28.002Z,29.70
2018-04-22T14:24:55.541Z,29.40
2018-04-22T14:27:23.027Z,29.50
2018-04-22T14:29:50.479Z,29.30
2018-04-22T14:32:18.614Z,29.00
2018-04-22T14:34:48.812Z,28.80
2018-04-22T14:37:16.290Z,29.00
2018-04-22T14:39:43.682Z,29.30
2018-04-22T14:42:11.258Z,29.50
2018-04-22T14:44:50.714Z,26.30
2018-04-22T14:47:20.639Z,27.40
2018-04-22T14:49:47.994Z,26.40
2018-04-22T14:52:15.407Z,28.40
2018-04-22T14:54:42.756Z,29.30
2018-04-22T14:57:11.267Z,29.10
2018-04-22T14:59:38.774Z,29.40
2018-04-22T15:02:06.164Z,29.30
2018-04-22T15:04:33.730Z,29.70
2018-04-22T15:07:01.114Z,29.90
2018-04-22T15:09:28.672Z,29.60
2018-04-22T15:11:56.084Z,27.40
2018-04-22T15:14:24.234Z,27.80
2018-04-22T15:16:51.586Z,25.20
2018-04-22T15:19:19.125Z,24.60
2018-04-22T15:21:47.541Z,24.20
2018-04-22T15:24:14.980Z,23.60
2018-04-22T15:26:42.516Z,23.50
2018-04-22T15:29:10.006Z,25.70
2018-04-22T15:31:38.246Z,23.70
2018-04-22T15:34:05.807Z,27.90
2018-04-22T15:36:33.252Z,25.40
2018-04-22T15:39:00.832Z,28.40
2018-04-22T15:41:28.257Z,27.60
2018-04-22T15:43:55.735Z,25.30
2018-04-22T15:46:23.153Z,24.80
2018-04-22T15:48:50.625Z,24.30
2018-04-22T15:51:18.058Z,24.10
2018-04-22T15:53:45.483Z,27.30
2018-04-22T15:56:13.074Z,24.50
2018-04-22T15:58:40.534Z,27.50
2018-04-22T16:01:07.975Z,25.60
2018-04-22T16:03:36.146Z,24.90
2018-04-22T16:06:06.114Z,24.70
2018-04-22T16:08:33.511Z,29.30
2018-04-22T16:11:01.796Z,30.10
2018-04-22T16:13:29.232Z,30.60
2018-04-22T16:15:56.719Z,29.10
2018-04-22T16:18:24.173Z,29.50
2018-04-22T16:20:51.732Z,26.80
2018-04-22T16:23:19.206Z,26.00
2018-04-22T16:25:47.348Z,25.70
2018-04-22T16:28:14.986Z,25.50
2018-04-22T16:30:42.458Z,25.80
2018-04-22T16:33:10.059Z,26.00
2018-04-22T16:35:37.511Z,26.10
2018-04-22T16:38:05.738Z,26.30
2018-04-22T16:43:01.553Z,26.00
2018-04-22T16:47:57.346Z,25.60
2018-04-22T16:50:24.805Z,29.00
2018-04-22T16:52:52.227Z,28.80
2018-04-22T16:55:19.752Z,27.90
2018-04-22T16:57:47.316Z,27.10
2018-04-22T17:00:14.755Z,28.20
2018-04-22T17:02:42.202Z,28.90
2018-04-22T17:05:10.584Z,27.90
2018-04-22T17:07:38.057Z,28.00
2018-04-22T17:10:05.529Z,28.30
2018-04-22T17:12:33.038Z,29.20
2018-04-22T17:15:00.525Z,30.80
2018-04-22T17:17:27.963Z,29.80
2018-04-22T17:19:58.866Z,30.10
2018-04-22T17:22:26.278Z,30.60
2018-04-22T17:24:53.730Z,30.50
2018-04-22T17:27:21.211Z,30.60
2018-04-22T17:29:48.755Z,31.60
2018-04-22T17:32:16.235Z,32.00
2018-04-22T17:34:43.763Z,31.90
2018-04-22T17:37:11.242Z,31.70
2018-04-22T17:39:38.764Z,31.60
2018-04-22T17:42:06.211Z,32.30
2018-04-22T17:44:33.807Z,33.90
2018-04-22T17:47:02.244Z,34.10
2018-04-22T17:49:30.670Z,34.10
2018-04-22T17:51:58.134Z,34.00
2018-04-22T17:54:26.419Z,34.40
2018-04-22T17:56:54.007Z,34.10
2018-04-22T17:59:21.468Z,34.80
2018-04-22T18:01:48.972Z,33.00
2018-04-22T18:04:16.406Z,31.90
2018-04-22T18:06:44.009Z,34.40
2018-04-22T18:09:11.796Z,34.70
2018-04-22T18:11:40.040Z,32.30
2018-04-22T18:14:07.623Z,34.80
2018-04-22T18:16:35.885Z,35.20
2018-04-22T18:19:03.380Z,35.70
2018-04-22T18:21:30.949Z,35.80
2018-04-22T18:23:58.378Z,35.50
2018-04-22T18:26:25.791Z,36.00
2018-04-22T18:28:53.345Z,35.10
2018-04-22T18:31:20.800Z,34.80
2018-04-22T18:33:48.240Z,34.80
2018-04-22T18:36:15.734Z,34.70
2018-04-22T18:38:43.476Z,34.60
2018-04-22T18:41:10.798Z,34.70
2018-04-22T18:43:38.253Z,34.70
2018-04-22T18:46:05.710Z,34.60
2018-04-22T18:48:33.117Z,34.50
2018-04-22T18:51:00.630Z,34.70
2018-04-22T18:53:28.049Z,35.20
2018-04-22T18:55:56.303Z,35.40
2018-04-22T18:58:23.874Z,33.20
2018-04-22T19:00:51.427Z,35.60
2018-04-22T19:03:18.880Z,35.70
2018-04-22T19:05:46.360Z,35.40
2018-04-22T19:08:13.807Z,34.00
2018-04-22T19:10:41.293Z,29.80
2018-04-22T19:13:08.806Z,30.10
2018-04-22T19:15:36.276Z,32.10
2018-04-22T19:18:05.594Z,35.30
2018-04-22T19:20:32.996Z,35.10
2018-04-22T19:23:00.543Z,35.70
2018-04-22T19:25:27.999Z,33.00
2018-04-22T19:27:55.490Z,30.10
2018-04-22T19:30:22.948Z,29.70
2018-04-22T19:32:50.497Z,29.60
2018-04-22T19:35:18.654Z,29.70
2018-04-22T19:37:46.224Z,34.20
2018-04-22T19:42:42.059Z,30.00
2018-04-22T19:45:10.189Z,30.00
2018-04-22T19:47:38.367Z,31.00
2018-04-22T19:52:34.590Z,30.00
2018-04-22T19:55:02.752Z,29.90
2018-04-22T19:59:59.207Z,32.70
2018-04-22T20:04:54.992Z,32.50
2018-04-22T20:07:22.384Z,30.50
2018-04-22T20:09:50.749Z,33.40
2018-04-22T20:12:18.102Z,34.20
2018-04-22T20:17:13.867Z,34.30
2018-04-22T20:19:41.993Z,34.10
2018-04-22T20:22:09.384Z,33.30
2018-04-22T20:24:36.914Z,33.90
2018-04-22T20:27:04.315Z,33.50
2018-04-22T20:29:31.786Z,30.10
2018-04-22T20:31:59.303Z,30.10
2018-04-22T20:34:26.743Z,28.90
2018-04-22T20:36:54.152Z,30.40
2018-04-22T20:39:21.601Z,29.90
2018-04-22T20:41:49.694Z,29.70
2018-04-22T20:44:17.143Z,31.80
2018-04-22T20:46:44.530Z,30.30
2018-04-22T20:49:12.799Z,28.30
2018-04-22T20:51:40.198Z,28.60
2018-04-22T20:54:07.680Z,28.30
2018-04-22T20:56:35.949Z,28.40
2018-04-22T20:59:03.371Z,28.10
2018-04-22T21:01:30.864Z,28.00
2018-04-22T21:03:59.202Z,29.40
2018-04-22T21:06:26.612Z,28.40
2018-04-22T21:08:54.150Z,27.90
2018-04-22T21:11:21.704Z,27.60
2018-04-22T21:13:49.229Z,29.00
2018-04-22T21:16:16.629Z,27.20
2018-04-22T21:18:44.207Z,29.00
2018-04-22T21:21:11.600Z,27.60
2018-04-22T21:23:39.097Z,28.20
2018-04-22T21:26:07.231Z,26.20
2018-04-22T21:28:34.791Z,26.40
2018-04-22T21:31:02.156Z,29.40
2018-04-22T21:33:29.627Z,25.90
2018-04-22T21:35:57.103Z,26.00
2018-04-22T21:38:25.278Z,26.30
2018-04-22T21:40:52.654Z,26.60
2018-04-22T21:43:20.742Z,26.80
2018-04-22T21:45:48.159Z,27.00
2018-04-22T21:48:16.238Z,27.10
2018-04-22T21:50:43.595Z,27.40
2018-04-22T21:53:11.729Z,27.60
2018-04-22T21:55:39.154Z,27.60
2018-04-22T21:58:06.564Z,27.60
2018-04-22T22:00:35.008Z,27.80
2018-04-22T22:03:02.426Z,27.80
2018-04-22T22:05:29.800Z,28.20
2018-04-22T22:07:57.233Z,27.80
2018-04-22T22:10:24.644Z,27.90
2018-04-22T22:12:52.055Z,28.10
2018-04-22T22:15:19.427Z,28.00
2018-04-22T22:17:46.891Z,28.00
2018-04-22T22:20:14.230Z,27.80
2018-04-22T22:22:42.531Z,27.90
2018-04-22T22:25:09.914Z,28.10
2018-04-22T22:27:37.440Z,28.50
2018-04-22T22:30:04.881Z,28.10
2018-04-22T22:32:32.151Z,28.20
2018-04-22T22:34:59.501Z,28.10
2018-04-22T22:37:26.954Z,28.30
2018-04-22T22:39:54.279Z,28.60
2018-04-22T22:42:21.628Z,28.90
2018-04-22T22:44:49.731Z,29.30
2018-04-22T22:47:17.153Z,32.20
2018-04-22T22:52:13.857Z,30.00
2018-04-22T22:54:41.535Z,29.50
2018-04-22T22:59:37.143Z,30.30
2018-04-22T23:04:33.567Z,30.20
2018-04-22T23:07:01.023Z,29.50
2018-04-22T23:09:28.438Z,29.90
2018-04-22T23:14:24.954Z,31.80
2018-04-22T23:16:52.354Z,36.60
2018-04-22T23:19:19.754Z,34.80
2018-04-22T23:21:47.167Z,32.90
2018-04-22T23:26:43.559Z,29.50
2018-04-22T23:29:10.926Z,29.50
2018-04-22T23:31:39.087Z,30.00
2018-04-22T23:34:06.462Z,30.50
2018-04-22T23:36:33.792Z,30.80
2018-04-22T23:39:01.147Z,30.00
2018-04-22T23:41:28.476Z,30.40
2018-04-22T23:43:55.822Z,31.20
2018-04-22T23:46:23.170Z,30.80
2018-04-22T23:48:51.261Z,31.30
2018-04-22T23:51:19.375Z,31.70
2018-04-22T23:56:14.995Z,32.10
2018-04-22T23:58:43.088Z,32.30
